sensor_id;sensor_type;location;lat;lon;timestamp;pressure;altitude;pressure_sealevel;temperature;humidity
7584;BME280;3833;41.764;26.204;2023-03-04T00:02:22;99053.50;;;4.76;100.00
7584;BME280;3833;41.764;26.204;2023-03-04T00:04:49;99048.47;;;4.73;100.00
7584;BME280;3833;41.764;26.204;2023-03-04T00:07:16;99050.63;;;4.84;100.00
7584;BME280;3833;41.764;26.204;2023-03-04T00:09:45;99045.75;;;4.76;100.00
7584;BME280;3833;41.764;26.204;2023-03-04T00:12:12;99040.59;;;4.76;100.00
7584;BME280;3833;41.764;26.204;2023-03-04T00:14:39;99037.75;;;4.82;100.00
7584;BME280;3833;41.764;26.204;2023-03-04T00:17:06;99048.56;;;4.70;100.00
7584;BME280;3833;41.764;26.204;2023-03-04T00:19:32;98911.44;;;3.86;100.00
7584;BME280;3833;41.764;26.204;2023-03-04T00:22:00;99046.16;;;4.66;100.00
7584;BME280;3833;41.764;26.204;2023-03-04T00:24:27;99040.25;;;4.62;100.00
7584;BME280;3833;41.764;26.204;2023-03-04T00:26:55;99047.47;;;4.76;100.00
7584;BME280;3833;41.764;26.204;2023-03-04T00:29:22;98984.78;;;4.26;100.00
7584;BME280;3833;41.764;26.204;2023-03-04T00:31:49;99043.81;;;4.81;100.00
7584;BME280;3833;41.764;26.204;2023-03-04T00:34:16;99041.31;;;4.80;100.00
7584;BME280;3833;41.764;26.204;2023-03-04T00:36:43;99051.94;;;4.72;100.00
7584;BME280;3833;41.764;26.204;2023-03-04T00:39:10;99011.63;;;4.45;100.00
7584;BME280;3833;41.764;26.204;2023-03-04T00:41:37;99039.84;;;4.73;100.00
7584;BME280;3833;41.764;26.204;2023-03-04T00:44:05;99044.72;;;4.80;100.00
7584;BME280;3833;41.764;26.204;2023-03-04T00:46:32;99042.50;;;4.93;100.00
7584;BME280;3833;41.764;26.204;2023-03-04T00:48:59;99054.53;;;4.94;100.00
7584;BME280;3833;41.764;26.204;2023-03-04T00:51:26;99048.06;;;4.84;100.00
7584;BME280;3833;41.764;26.204;2023-03-04T00:53:53;99055.47;;;4.70;100.00
7584;BME280;3833;41.764;26.204;2023-03-04T00:56:20;99052.16;;;4.66;100.00
7584;BME280;3833;41.764;26.204;2023-03-04T00:58:46;99048.84;;;4.63;100.00
7584;BME280;3833;41.764;26.204;2023-03-04T01:01:15;99044.91;;;4.53;100.00
7584;BME280;3833;41.764;26.204;2023-03-04T01:03:42;99049.78;;;4.60;100.00
7584;BME280;3833;41.764;26.204;2023-03-04T01:06:08;99053.06;;;4.65;100.00
7584;BME280;3833;41.764;26.204;2023-03-04T01:08:36;99038.31;;;4.46;100.00
7584;BME280;3833;41.764;26.204;2023-03-04T01:11:03;99063.75;;;4.33;100.00
7584;BME280;3833;41.764;26.204;2023-03-04T01:13:30;99022.31;;;4.36;100.00
7584;BME280;3833;41.764;26.204;2023-03-04T01:15:56;99030.94;;;4.58;100.00
7584;BME280;3833;41.764;26.204;2023-03-04T01:18:26;99061.28;;;4.76;100.00
7584;BME280;3833;41.764;26.204;2023-03-04T01:20:53;99058.22;;;4.42;100.00
7584;BME280;3833;41.764;26.204;2023-03-04T01:23:20;99053.97;;;4.64;100.00
7584;BME280;3833;41.764;26.204;2023-03-04T01:25:47;99052.66;;;4.76;100.00
7584;BME280;3833;41.764;26.204;2023-03-04T01:28:14;99059.72;;;4.71;100.00
7584;BME280;3833;41.764;26.204;2023-03-04T01:30:40;99053.03;;;4.67;100.00
7584;BME280;3833;41.764;26.204;2023-03-04T01:33:07;99047.00;;;4.66;100.00
7584;BME280;3833;41.764;26.204;2023-03-04T01:35:35;99047.88;;;4.65;100.00
7584;BME280;3833;41.764;26.204;2023-03-04T01:38:02;99041.59;;;4.72;100.00
7584;BME280;3833;41.764;26.204;2023-03-04T01:40:29;99048.69;;;4.67;100.00
7584;BME280;3833;41.764;26.204;2023-03-04T01:42:56;98984.78;;;4.26;100.00
7584;BME280;3833;41.764;26.204;2023-03-04T01:45:24;99048.56;;;4.70;100.00
7584;BME280;3833;41.764;26.204;2023-03-04T01:47:51;99053.91;;;4.66;100.00
7584;BME280;3833;41.764;26.204;2023-03-04T01:50:21;99044.22;;;4.71;100.00
7584;BME280;3833;41.764;26.204;2023-03-04T01:52:51;99025.38;;;4.69;100.00
7584;BME280;3833;41.764;26.204;2023-03-04T01:55:19;99035.06;;;4.62;100.00
7584;BME280;3833;41.764;26.204;2023-03-04T01:57:47;99031.47;;;4.66;100.00
7584;BME280;3833;41.764;26.204;2023-03-04T02:00:27;99002.53;;;4.58;100.00
7584;BME280;3833;41.764;26.204;2023-03-04T02:02:58;99032.34;;;4.67;100.00
7584;BME280;3833;41.764;26.204;2023-03-04T02:05:25;98916.97;;;3.99;100.00
7584;BME280;3833;41.764;26.204;2023-03-04T02:07:55;98997.88;;;4.66;100.00
7584;BME280;3833;41.764;26.204;2023-03-04T02:10:23;98798.31;;;3.51;100.00
7584;BME280;3833;41.764;26.204;2023-03-04T02:12:50;98996.97;;;4.67;100.00
7584;BME280;3833;41.764;26.204;2023-03-04T02:15:17;99028.63;;;4.95;100.00
7584;BME280;3833;41.764;26.204;2023-03-04T02:17:44;99040.16;;;5.08;100.00
7584;BME280;3833;41.764;26.204;2023-03-04T02:20:24;99041.25;;;5.03;100.00
7584;BME280;3833;41.764;26.204;2023-03-04T02:23:02;99038.59;;;5.04;100.00
7584;BME280;3833;41.764;26.204;2023-03-04T02:25:37;99035.84;;;4.87;100.00
7584;BME280;3833;41.764;26.204;2023-03-04T02:28:06;99002.03;;;4.70;100.00
7584;BME280;3833;41.764;26.204;2023-03-04T02:30:33;99042.34;;;4.97;100.00
7584;BME280;3833;41.764;26.204;2023-03-04T02:33:00;98910.44;;;4.34;100.00
7584;BME280;3833;41.764;26.204;2023-03-04T02:35:27;98976.97;;;4.94;100.00
7584;BME280;3833;41.764;26.204;2023-03-04T02:37:54;99004.06;;;5.05;100.00
7584;BME280;3833;41.764;26.204;2023-03-04T02:40:23;99010.09;;;4.84;100.00
7584;BME280;3833;41.764;26.204;2023-03-04T02:42:52;99014.47;;;4.82;100.00
7584;BME280;3833;41.764;26.204;2023-03-04T02:45:36;99001.81;;;4.76;100.00
7584;BME280;3833;41.764;26.204;2023-03-04T02:48:04;98995.19;;;4.69;100.00
7584;BME280;3833;41.764;26.204;2023-03-04T02:50:34;98995.41;;;4.63;100.00
7584;BME280;3833;41.764;26.204;2023-03-04T02:53:01;99003.34;;;4.80;100.00
7584;BME280;3833;41.764;26.204;2023-03-04T02:55:28;98998.91;;;4.62;100.00
7584;BME280;3833;41.764;26.204;2023-03-04T02:57:56;98999.25;;;4.53;100.00
7584;BME280;3833;41.764;26.204;2023-03-04T03:00:24;98998.00;;;4.40;100.00
7584;BME280;3833;41.764;26.204;2023-03-04T03:02:52;98997.78;;;4.46;100.00
7584;BME280;3833;41.764;26.204;2023-03-04T03:05:21;99017.00;;;4.39;100.00
7584;BME280;3833;41.764;26.204;2023-03-04T03:07:49;99000.94;;;4.54;100.00
7584;BME280;3833;41.764;26.204;2023-03-04T03:10:16;99002.38;;;4.61;100.00
7584;BME280;3833;41.764;26.204;2023-03-04T03:12:43;99008.75;;;4.53;100.00
7584;BME280;3833;41.764;26.204;2023-03-04T03:15:10;99008.13;;;4.46;100.00
7584;BME280;3833;41.764;26.204;2023-03-04T03:17:37;99016.56;;;4.51;100.00
7584;BME280;3833;41.764;26.204;2023-03-04T03:20:07;99004.31;;;4.56;100.00
7584;BME280;3833;41.764;26.204;2023-03-04T03:22:35;99013.09;;;4.52;100.00
7584;BME280;3833;41.764;26.204;2023-03-04T03:25:02;99009.47;;;4.56;100.00
7584;BME280;3833;41.764;26.204;2023-03-04T03:27:29;99011.78;;;4.64;100.00
7584;BME280;3833;41.764;26.204;2023-03-04T03:29:56;99020.34;;;4.64;100.00
7584;BME280;3833;41.764;26.204;2023-03-04T03:32:22;98989.38;;;4.41;100.00
7584;BME280;3833;41.764;26.204;2023-03-04T03:34:49;99028.59;;;4.52;100.00
7584;BME280;3833;41.764;26.204;2023-03-04T03:37:18;99004.03;;;4.41;100.00
7584;BME280;3833;41.764;26.204;2023-03-04T03:39:44;99037.00;;;4.57;100.00
7584;BME280;3833;41.764;26.204;2023-03-04T03:42:11;99013.66;;;4.37;100.00
7584;BME280;3833;41.764;26.204;2023-03-04T03:44:38;99018.31;;;4.28;100.00
7584;BME280;3833;41.764;26.204;2023-03-04T03:47:05;99049.03;;;4.35;100.00
7584;BME280;3833;41.764;26.204;2023-03-04T03:49:32;99048.69;;;4.44;100.00
7584;BME280;3833;41.764;26.204;2023-03-04T03:51:59;99049.97;;;4.56;100.00
7584;BME280;3833;41.764;26.204;2023-03-04T03:54:27;99046.88;;;4.69;100.00
7584;BME280;3833;41.764;26.204;2023-03-04T03:56:54;99022.13;;;4.64;100.00
7584;BME280;3833;41.764;26.204;2023-03-04T03:59:20;99044.88;;;4.77;100.00
7584;BME280;3833;41.764;26.204;2023-03-04T04:01:48;99038.94;;;4.74;100.00
7584;BME280;3833;41.764;26.204;2023-03-04T04:04:15;98929.94;;;3.97;100.00
7584;BME280;3833;41.764;26.204;2023-03-04T04:06:42;99042.63;;;4.68;100.00
7584;BME280;3833;41.764;26.204;2023-03-04T04:09:08;99034.53;;;4.77;100.00
7584;BME280;3833;41.764;26.204;2023-03-04T04:11:38;99044.97;;;4.74;100.00
7584;BME280;3833;41.764;26.204;2023-03-04T04:14:04;99030.09;;;4.79;100.00
7584;BME280;3833;41.764;26.204;2023-03-04T04:16:32;99034.63;;;4.74;100.00
7584;BME280;3833;41.764;26.204;2023-03-04T04:18:58;99015.88;;;4.69;100.00
7584;BME280;3833;41.764;26.204;2023-03-04T04:21:25;98920.56;;;4.17;100.00
7584;BME280;3833;41.764;26.204;2023-03-04T04:23:52;99019.59;;;4.84;100.00
7584;BME280;3833;41.764;26.204;2023-03-04T04:26:19;99026.28;;;4.45;100.00
7584;BME280;3833;41.764;26.204;2023-03-04T04:28:47;99017.78;;;4.64;100.00
7584;BME280;3833;41.764;26.204;2023-03-04T04:31:14;99021.25;;;4.63;100.00
7584;BME280;3833;41.764;26.204;2023-03-04T04:33:41;99031.72;;;4.60;100.00
7584;BME280;3833;41.764;26.204;2023-03-04T04:36:11;99020.44;;;4.63;100.00
7584;BME280;3833;41.764;26.204;2023-03-04T04:38:38;99031.63;;;4.85;100.00
7584;BME280;3833;41.764;26.204;2023-03-04T04:41:11;99029.19;;;4.80;100.00
7584;BME280;3833;41.764;26.204;2023-03-04T04:43:42;99023.69;;;4.68;100.00
7584;BME280;3833;41.764;26.204;2023-03-04T04:46:10;99021.03;;;4.69;100.00
7584;BME280;3833;41.764;26.204;2023-03-04T04:48:37;99022.22;;;4.82;100.00
7584;BME280;3833;41.764;26.204;2023-03-04T04:51:04;99024.19;;;4.77;100.00
7584;BME280;3833;41.764;26.204;2023-03-04T04:53:31;99022.94;;;4.64;100.00
7584;BME280;3833;41.764;26.204;2023-03-04T04:55:58;99029.91;;;4.62;100.00
7584;BME280;3833;41.764;26.204;2023-03-04T04:58:25;99019.56;;;4.62;100.00
7584;BME280;3833;41.764;26.204;2023-03-04T05:00:55;99025.59;;;4.84;100.00
7584;BME280;3833;41.764;26.204;2023-03-04T05:03:24;99028.00;;;4.67;100.00
7584;BME280;3833;41.764;26.204;2023-03-04T05:05:50;99027.22;;;4.65;100.00
7584;BME280;3833;41.764;26.204;2023-03-04T05:08:17;99021.75;;;4.73;100.00
7584;BME280;3833;41.764;26.204;2023-03-04T05:10:44;99007.78;;;4.78;100.00
7584;BME280;3833;41.764;26.204;2023-03-04T05:13:11;98989.81;;;4.52;100.00
7584;BME280;3833;41.764;26.204;2023-03-04T05:15:38;99023.91;;;4.83;100.00
7584;BME280;3833;41.764;26.204;2023-03-04T05:18:04;98979.13;;;4.61;100.00
7584;BME280;3833;41.764;26.204;2023-03-04T05:20:33;99024.16;;;4.99;100.00
7584;BME280;3833;41.764;26.204;2023-03-04T05:22:59;99024.38;;;4.94;100.00
7584;BME280;3833;41.764;26.204;2023-03-04T05:25:26;99035.44;;;4.53;100.00
7584;BME280;3833;41.764;26.204;2023-03-04T05:27:53;98805.25;;;3.51;100.00
7584;BME280;3833;41.764;26.204;2023-03-04T05:30:20;99001.75;;;4.78;100.00
7584;BME280;3833;41.764;26.204;2023-03-04T05:32:47;99035.50;;;4.96;100.00
7584;BME280;3833;41.764;26.204;2023-03-04T05:35:14;99030.00;;;5.04;100.00
7584;BME280;3833;41.764;26.204;2023-03-04T05:37:42;99023.31;;;5.19;100.00
7584;BME280;3833;41.764;26.204;2023-03-04T05:40:10;99023.25;;;5.42;100.00
7584;BME280;3833;41.764;26.204;2023-03-04T05:42:37;99033.81;;;5.58;100.00
7584;BME280;3833;41.764;26.204;2023-03-04T05:45:05;98993.53;;;5.51;100.00
7584;BME280;3833;41.764;26.204;2023-03-04T05:47:32;98977.34;;;5.66;100.00
7584;BME280;3833;41.764;26.204;2023-03-04T05:49:59;99034.28;;;6.64;100.00
7584;BME280;3833;41.764;26.204;2023-03-04T05:52:26;99025.03;;;7.47;100.00
7584;BME280;3833;41.764;26.204;2023-03-04T05:54:54;99036.03;;;7.69;100.00
7584;BME280;3833;41.764;26.204;2023-03-04T05:57:21;99044.56;;;7.37;100.00
7584;BME280;3833;41.764;26.204;2023-03-04T05:59:48;99044.63;;;6.45;100.00
7584;BME280;3833;41.764;26.204;2023-03-04T06:02:14;99050.25;;;6.36;100.00
7584;BME280;3833;41.764;26.204;2023-03-04T06:04:41;99007.34;;;6.85;100.00
7584;BME280;3833;41.764;26.204;2023-03-04T06:07:08;99042.97;;;7.52;100.00
7584;BME280;3833;41.764;26.204;2023-03-04T06:09:35;99043.31;;;7.80;100.00
7584;BME280;3833;41.764;26.204;2023-03-04T06:12:04;99042.25;;;7.84;100.00
7584;BME280;3833;41.764;26.204;2023-03-04T06:14:31;99041.47;;;7.82;100.00
7584;BME280;3833;41.764;26.204;2023-03-04T06:16:57;99017.91;;;7.68;100.00
7584;BME280;3833;41.764;26.204;2023-03-04T06:19:24;99047.28;;;8.04;100.00
7584;BME280;3833;41.764;26.204;2023-03-04T06:21:51;99041.34;;;8.34;100.00
7584;BME280;3833;41.764;26.204;2023-03-04T06:24:18;99050.28;;;8.28;100.00
7584;BME280;3833;41.764;26.204;2023-03-04T06:26:45;99054.94;;;8.39;100.00
7584;BME280;3833;41.764;26.204;2023-03-04T06:29:13;99050.66;;;8.38;100.00
7584;BME280;3833;41.764;26.204;2023-03-04T06:31:40;98938.00;;;7.73;100.00
7584;BME280;3833;41.764;26.204;2023-03-04T06:34:07;99055.03;;;8.85;100.00
7584;BME280;3833;41.764;26.204;2023-03-04T06:36:34;99058.06;;;9.24;100.00
7584;BME280;3833;41.764;26.204;2023-03-04T06:39:01;99046.50;;;9.59;100.00
7584;BME280;3833;41.764;26.204;2023-03-04T06:41:29;98925.84;;;9.43;100.00
7584;BME280;3833;41.764;26.204;2023-03-04T06:43:56;99048.47;;;9.99;100.00
7584;BME280;3833;41.764;26.204;2023-03-04T06:46:24;99056.91;;;9.59;100.00
7584;BME280;3833;41.764;26.204;2023-03-04T06:48:51;99046.34;;;9.31;100.00
7584;BME280;3833;41.764;26.204;2023-03-04T06:51:18;99061.59;;;9.23;100.00
7584;BME280;3833;41.764;26.204;2023-03-04T06:53:45;99058.88;;;9.09;100.00
7584;BME280;3833;41.764;26.204;2023-03-04T06:56:13;99066.47;;;8.98;100.00
7584;BME280;3833;41.764;26.204;2023-03-04T06:58:41;99068.72;;;9.20;100.00
7584;BME280;3833;41.764;26.204;2023-03-04T07:01:12;99056.16;;;9.57;100.00
7584;BME280;3833;41.764;26.204;2023-03-04T07:03:42;99064.84;;;9.87;100.00
7584;BME280;3833;41.764;26.204;2023-03-04T07:06:11;99064.41;;;9.49;100.00
7584;BME280;3833;41.764;26.204;2023-03-04T07:08:38;99064.09;;;9.09;100.00
7584;BME280;3833;41.764;26.204;2023-03-04T07:11:05;99067.28;;;9.45;100.00
7584;BME280;3833;41.764;26.204;2023-03-04T07:13:32;99076.97;;;9.72;100.00
7584;BME280;3833;41.764;26.204;2023-03-04T07:16:03;99086.16;;;10.09;100.00
7584;BME280;3833;41.764;26.204;2023-03-04T07:18:30;99075.03;;;10.62;100.00
7584;BME280;3833;41.764;26.204;2023-03-04T07:20:58;99064.09;;;10.28;100.00
7584;BME280;3833;41.764;26.204;2023-03-04T07:23:25;99069.03;;;10.32;100.00
7584;BME280;3833;41.764;26.204;2023-03-04T07:25:52;99065.41;;;10.49;100.00
7584;BME280;3833;41.764;26.204;2023-03-04T07:28:19;99052.03;;;11.09;100.00
7584;BME280;3833;41.764;26.204;2023-03-04T07:30:46;99059.94;;;10.67;100.00
7584;BME280;3833;41.764;26.204;2023-03-04T07:33:13;99061.72;;;10.10;100.00
7584;BME280;3833;41.764;26.204;2023-03-04T07:35:40;99068.50;;;10.28;100.00
7584;BME280;3833;41.764;26.204;2023-03-04T07:38:09;99064.63;;;9.90;100.00
7584;BME280;3833;41.764;26.204;2023-03-04T07:40:36;99030.53;;;9.79;100.00
7584;BME280;3833;41.764;26.204;2023-03-04T07:43:03;99059.13;;;10.10;100.00
7584;BME280;3833;41.764;26.204;2023-03-04T07:45:30;98964.75;;;9.46;100.00
7584;BME280;3833;41.764;26.204;2023-03-04T07:47:57;99065.00;;;10.13;100.00
7584;BME280;3833;41.764;26.204;2023-03-04T07:50:24;99062.00;;;9.76;100.00
7584;BME280;3833;41.764;26.204;2023-03-04T07:52:51;99034.25;;;10.04;100.00
7584;BME280;3833;41.764;26.204;2023-03-04T07:55:19;99060.47;;;10.31;100.00
7584;BME280;3833;41.764;26.204;2023-03-04T07:57:46;99056.00;;;10.60;100.00
7584;BME280;3833;41.764;26.204;2023-03-04T08:00:15;99064.91;;;10.15;100.00
7584;BME280;3833;41.764;26.204;2023-03-04T08:02:42;99042.47;;;10.40;100.00
7584;BME280;3833;41.764;26.204;2023-03-04T08:05:09;99061.41;;;10.71;100.00
7584;BME280;3833;41.764;26.204;2023-03-04T08:07:36;99051.63;;;11.15;100.00
7584;BME280;3833;41.764;26.204;2023-03-04T08:10:04;99055.88;;;11.70;100.00
7584;BME280;3833;41.764;26.204;2023-03-04T08:12:32;99020.63;;;11.76;100.00
7584;BME280;3833;41.764;26.204;2023-03-04T08:14:59;99038.84;;;12.89;100.00
7584;BME280;3833;41.764;26.204;2023-03-04T08:17:26;99011.34;;;13.20;100.00
7584;BME280;3833;41.764;26.204;2023-03-04T08:19:54;99026.19;;;13.55;100.00
7584;BME280;3833;41.764;26.204;2023-03-04T08:22:21;99010.56;;;13.99;100.00
7584;BME280;3833;41.764;26.204;2023-03-04T08:24:48;99040.19;;;14.57;100.00
7584;BME280;3833;41.764;26.204;2023-03-04T08:27:15;99048.16;;;15.21;100.00
7584;BME280;3833;41.764;26.204;2023-03-04T08:29:43;99031.81;;;14.74;98.97
7584;BME280;3833;41.764;26.204;2023-03-04T08:32:10;99051.78;;;14.76;100.00
7584;BME280;3833;41.764;26.204;2023-03-04T08:34:38;99045.69;;;14.98;99.74
7584;BME280;3833;41.764;26.204;2023-03-04T08:37:05;99039.28;;;15.75;95.42
7584;BME280;3833;41.764;26.204;2023-03-04T08:39:31;99050.03;;;16.04;91.25
7584;BME280;3833;41.764;26.204;2023-03-04T08:42:00;99044.38;;;15.88;89.60
7584;BME280;3833;41.764;26.204;2023-03-04T08:44:27;99049.03;;;14.56;94.96
7584;BME280;3833;41.764;26.204;2023-03-04T08:46:55;99008.41;;;14.49;98.90
7584;BME280;3833;41.764;26.204;2023-03-04T08:49:22;99036.72;;;13.77;100.00
7584;BME280;3833;41.764;26.204;2023-03-04T08:51:49;99033.97;;;13.44;100.00
7584;BME280;3833;41.764;26.204;2023-03-04T08:54:16;99044.16;;;13.36;100.00
7584;BME280;3833;41.764;26.204;2023-03-04T08:56:43;99031.47;;;13.77;100.00
7584;BME280;3833;41.764;26.204;2023-03-04T08:59:10;99031.47;;;13.77;100.00
7584;BME280;3833;41.764;26.204;2023-03-04T09:01:37;99039.41;;;13.88;100.00
7584;BME280;3833;41.764;26.204;2023-03-04T09:04:05;99038.94;;;13.36;100.00
7584;BME280;3833;41.764;26.204;2023-03-04T09:06:32;99032.38;;;13.18;100.00
7584;BME280;3833;41.764;26.204;2023-03-04T09:08:59;98930.47;;;12.54;100.00
7584;BME280;3833;41.764;26.204;2023-03-04T09:11:26;99031.25;;;13.80;100.00
7584;BME280;3833;41.764;26.204;2023-03-04T09:13:53;99024.53;;;14.45;100.00
7584;BME280;3833;41.764;26.204;2023-03-04T09:16:20;99016.66;;;14.34;100.00
7584;BME280;3833;41.764;26.204;2023-03-04T09:18:47;99024.53;;;14.45;100.00
7584;BME280;3833;41.764;26.204;2023-03-04T09:21:15;99010.31;;;14.36;100.00
7584;BME280;3833;41.764;26.204;2023-03-04T09:23:42;99009.38;;;13.92;100.00
7584;BME280;3833;41.764;26.204;2023-03-04T09:26:14;99010.50;;;13.77;100.00
7584;BME280;3833;41.764;26.204;2023-03-04T09:28:41;99005.22;;;12.83;100.00
7584;BME280;3833;41.764;26.204;2023-03-04T09:31:12;98955.41;;;12.60;100.00
7584;BME280;3833;41.764;26.204;2023-03-04T09:33:39;99008.78;;;12.82;100.00
7584;BME280;3833;41.764;26.204;2023-03-04T09:36:08;99006.19;;;13.18;100.00
7584;BME280;3833;41.764;26.204;2023-03-04T09:38:37;99000.00;;;13.19;100.00
7584;BME280;3833;41.764;26.204;2023-03-04T09:41:07;99001.66;;;12.97;100.00
7584;BME280;3833;41.764;26.204;2023-03-04T09:43:35;98969.16;;;12.99;100.00
7584;BME280;3833;41.764;26.204;2023-03-04T09:46:07;98946.84;;;12.58;100.00
7584;BME280;3833;41.764;26.204;2023-03-04T09:48:42;98964.25;;;12.46;100.00
7584;BME280;3833;41.764;26.204;2023-03-04T09:51:36;99000.28;;;12.31;100.00
7584;BME280;3833;41.764;26.204;2023-03-04T09:54:10;98992.72;;;12.51;100.00
7584;BME280;3833;41.764;26.204;2023-03-04T09:56:40;98981.22;;;12.41;100.00
7584;BME280;3833;41.764;26.204;2023-03-04T09:59:23;98974.91;;;12.43;100.00
7584;BME280;3833;41.764;26.204;2023-03-04T10:01:53;98978.59;;;12.53;100.00
7584;BME280;3833;41.764;26.204;2023-03-04T10:04:28;98934.66;;;12.69;100.00
7584;BME280;3833;41.764;26.204;2023-03-04T10:06:57;98969.63;;;12.68;100.00
7584;BME280;3833;41.764;26.204;2023-03-04T10:09:28;98968.97;;;12.77;100.00
7584;BME280;3833;41.764;26.204;2023-03-04T10:12:00;98970.50;;;13.28;100.00
7584;BME280;3833;41.764;26.204;2023-03-04T10:14:36;98962.53;;;13.64;100.00
7584;BME280;3833;41.764;26.204;2023-03-04T10:17:11;98777.13;;;12.40;100.00
7584;BME280;3833;41.764;26.204;2023-03-04T10:19:50;98961.03;;;13.15;100.00
7584;BME280;3833;41.764;26.204;2023-03-04T10:22:24;98951.78;;;12.38;100.00
7584;BME280;3833;41.764;26.204;2023-03-04T10:24:55;98945.91;;;12.82;100.00
7584;BME280;3833;41.764;26.204;2023-03-04T10:27:23;98933.19;;;12.65;100.00
7584;BME280;3833;41.764;26.204;2023-03-04T10:29:51;98943.66;;;13.01;100.00
7584;BME280;3833;41.764;26.204;2023-03-04T10:32:19;98906.78;;;12.33;100.00
7584;BME280;3833;41.764;26.204;2023-03-04T10:34:46;98941.28;;;12.98;100.00
7584;BME280;3833;41.764;26.204;2023-03-04T10:37:13;98897.91;;;12.23;100.00
7584;BME280;3833;41.764;26.204;2023-03-04T10:39:42;98855.13;;;12.35;100.00
7584;BME280;3833;41.764;26.204;2023-03-04T10:42:26;98941.63;;;12.81;100.00
7584;BME280;3833;41.764;26.204;2023-03-04T10:44:56;98933.97;;;12.78;100.00
7584;BME280;3833;41.764;26.204;2023-03-04T10:47:24;98933.75;;;12.81;100.00
7584;BME280;3833;41.764;26.204;2023-03-04T10:49:52;98921.22;;;12.74;100.00
7584;BME280;3833;41.764;26.204;2023-03-04T10:52:26;98929.47;;;12.80;100.00
7584;BME280;3833;41.764;26.204;2023-03-04T10:54:55;98924.28;;;13.04;100.00
7584;BME280;3833;41.764;26.204;2023-03-04T10:57:31;98908.53;;;12.44;100.00
7584;BME280;3833;41.764;26.204;2023-03-04T11:00:00;98903.47;;;12.77;100.00
7584;BME280;3833;41.764;26.204;2023-03-04T11:02:28;98882.56;;;12.65;100.00
7584;BME280;3833;41.764;26.204;2023-03-04T11:05:15;98895.28;;;12.58;100.00
7584;BME280;3833;41.764;26.204;2023-03-04T11:07:44;98901.25;;;12.25;100.00
7584;BME280;3833;41.764;26.204;2023-03-04T11:10:17;98858.94;;;12.31;100.00
7584;BME280;3833;41.764;26.204;2023-03-04T11:12:51;98878.34;;;12.51;100.00
7584;BME280;3833;41.764;26.204;2023-03-04T11:15:22;98850.00;;;12.10;100.00
7584;BME280;3833;41.764;26.204;2023-03-04T11:17:54;98828.91;;;12.47;100.00
7584;BME280;3833;41.764;26.204;2023-03-04T11:20:28;98871.63;;;12.60;100.00
7584;BME280;3833;41.764;26.204;2023-03-04T11:23:01;98780.97;;;11.87;100.00
7584;BME280;3833;41.764;26.204;2023-03-04T11:25:32;98826.94;;;12.50;100.00
7584;BME280;3833;41.764;26.204;2023-03-04T11:28:02;98863.38;;;12.77;100.00
7584;BME280;3833;41.764;26.204;2023-03-04T11:30:40;98857.72;;;12.47;100.00
7584;BME280;3833;41.764;26.204;2023-03-04T11:33:16;98829.44;;;12.29;100.00
7584;BME280;3833;41.764;26.204;2023-03-04T11:35:53;98864.63;;;12.84;100.00
7584;BME280;3833;41.764;26.204;2023-03-04T11:38:28;98852.34;;;12.61;100.00
7584;BME280;3833;41.764;26.204;2023-03-04T11:41:02;98848.28;;;12.57;100.00
7584;BME280;3833;41.764;26.204;2023-03-04T11:43:35;98844.69;;;12.81;100.00
7584;BME280;3833;41.764;26.204;2023-03-04T11:46:25;98655.53;;;11.86;100.00
7584;BME280;3833;41.764;26.204;2023-03-04T11:49:07;98840.09;;;13.19;100.00
7584;BME280;3833;41.764;26.204;2023-03-04T11:51:41;98843.00;;;13.27;100.00
7584;BME280;3833;41.764;26.204;2023-03-04T11:54:19;98829.00;;;13.50;100.00
7584;BME280;3833;41.764;26.204;2023-03-04T11:56:50;98835.34;;;13.13;100.00
7584;BME280;3833;41.764;26.204;2023-03-04T11:59:42;98833.53;;;13.03;100.00
7584;BME280;3833;41.764;26.204;2023-03-04T12:02:14;98838.25;;;13.43;100.00
7584;BME280;3833;41.764;26.204;2023-03-04T12:05:16;98834.22;;;13.50;100.00
7584;BME280;3833;41.764;26.204;2023-03-04T12:08:02;98826.38;;;13.61;100.00
7584;BME280;3833;41.764;26.204;2023-03-04T12:10:41;98830.06;;;13.58;100.00
7584;BME280;3833;41.764;26.204;2023-03-04T12:13:24;98828.78;;;13.19;100.00
7584;BME280;3833;41.764;26.204;2023-03-04T12:16:04;98820.41;;;13.59;100.00
7584;BME280;3833;41.764;26.204;2023-03-04T12:18:43;98817.06;;;13.68;100.00
7584;BME280;3833;41.764;26.204;2023-03-04T12:21:29;98820.78;;;13.98;100.00
7584;BME280;3833;41.764;26.204;2023-03-04T12:24:28;98820.88;;;14.08;100.00
7584;BME280;3833;41.764;26.204;2023-03-04T12:27:08;98802.97;;;13.36;100.00
7584;BME280;3833;41.764;26.204;2023-03-04T12:29:42;98823.75;;;13.83;100.00
7584;BME280;3833;41.764;26.204;2023-03-04T12:32:16;98792.19;;;13.06;100.00
7584;BME280;3833;41.764;26.204;2023-03-04T12:35:03;98818.41;;;13.06;100.00
7584;BME280;3833;41.764;26.204;2023-03-04T12:37:52;98809.59;;;13.07;100.00
7584;BME280;3833;41.764;26.204;2023-03-04T12:40:37;98813.59;;;13.00;100.00
7584;BME280;3833;41.764;26.204;2023-03-04T12:43:27;98801.78;;;13.40;100.00
7584;BME280;3833;41.764;26.204;2023-03-04T12:46:03;98796.78;;;13.48;100.00
7584;BME280;3833;41.764;26.204;2023-03-04T12:48:38;98764.38;;;13.49;100.00
7584;BME280;3833;41.764;26.204;2023-03-04T12:51:16;98784.97;;;13.86;100.00
7584;BME280;3833;41.764;26.204;2023-03-04T12:53:53;98792.03;;;13.53;100.00
7584;BME280;3833;41.764;26.204;2023-03-04T12:56:25;98783.81;;;13.57;100.00
7584;BME280;3833;41.764;26.204;2023-03-04T12:58:52;98659.22;;;12.86;100.00
7584;BME280;3833;41.764;26.204;2023-03-04T13:01:23;98775.81;;;13.59;100.00
7584;BME280;3833;41.764;26.204;2023-03-04T13:03:59;98780.56;;;13.43;100.00
7584;BME280;3833;41.764;26.204;2023-03-04T13:06:34;98765.78;;;13.31;100.00
7584;BME280;3833;41.764;26.204;2023-03-04T13:09:08;98768.91;;;12.91;100.00
7584;BME280;3833;41.764;26.204;2023-03-04T13:11:44;98746.31;;;12.77;100.00
7584;BME280;3833;41.764;26.204;2023-03-04T13:14:30;98727.63;;;13.05;100.00
7584;BME280;3833;41.764;26.204;2023-03-04T13:16:58;98755.72;;;13.03;100.00
7584;BME280;3833;41.764;26.204;2023-03-04T13:19:46;98757.84;;;12.98;100.00
7584;BME280;3833;41.764;26.204;2023-03-04T13:22:41;98752.53;;;13.11;100.00